PWSweather.com
Personal Weather Stations
Station Observations
KB2SBX
Sugarloaf, Sugarloaf, PA 18249

SugarloafSugarloaf, PA 18249

Lat: 41.0126685, Lon: -76.1082041

Elevation: 1030

Station Type: WS-2080

http://sugarloafpaweather.webng.com/weather.shtml

High Low Average
Temperature 42.8°F6.0°C 19.8°F-6.8°C 32.0°F0.0°C
Dew Point 22.7°F-5.2°C 8.9°F-12.8°C 15.4°F-9.2°C
Winds 6.4 mph 10.3 kmh Calm Calm 2.0 mph SE3.2 kmh SE
Wind Gusts 20.6 mph33.2 kmh -- 7.0 mph11.3 kmh
Humidity 67% 37% 51%
Pressure 30.28 in1025.4 mb 29.85 in1010.8 mb -
Precipitation 0.00 in0.0 mm - -
Hour Temp Dew Point Humidity Winds Wind Gusts Pressure Precip Precip Rate Daily Precip Total
12:00 AM 24.8°F-4.0°C 10.1°F-12.2°C 53% 0.2 mph NE0.3 kmh NE 1.6 mph2.6 kmh 30.25 in1024.4 mb 0.00 in0.0 mm 0.00 in/hr0.0 mm/hr 0.00 in0.0 mm
12:15 AM 24.4°F-4.2°C 10.2°F-12.1°C 54% Calm Calm 0.7 mph1.1 kmh 30.26 in1024.7 mb 0.00 in0.0 mm 0.00 in/hr0.0 mm/hr 0.00 in0.0 mm
12:30 AM 23.9°F-4.5°C 9.7°F-12.4°C 54% Calm Calm 0.7 mph1.1 kmh 30.26 in1024.7 mb 0.00 in0.0 mm 0.00 in/hr0.0 mm/hr 0.00 in0.0 mm
12:45 AM 23.7°F-4.6°C 10.4°F-12.0°C 56% 0.2 mph NNE0.3 kmh NNE 2.2 mph3.5 kmh 30.26 in1024.7 mb 0.00 in0.0 mm 0.00 in/hr0.0 mm/hr 0.00 in0.0 mm
01:00 AM 23.4°F-4.8°C 9.6°F-12.4°C 55% Calm Calm -- 30.26 in1024.7 mb 0.00 in0.0 mm 0.00 in/hr0.0 mm/hr 0.00 in0.0 mm
01:15 AM 23.2°F-4.9°C 10.3°F-12.1°C 57% Calm Calm -- 30.27 in1025.1 mb 0.00 in0.0 mm 0.00 in/hr0.0 mm/hr 0.00 in0.0 mm
01:30 AM 22.8°F-5.1°C 9.9°F-12.3°C 57% 0.2 mph NNW0.3 kmh NNW 1.6 mph2.6 kmh 30.27 in1025.1 mb 0.00 in0.0 mm 0.00 in/hr0.0 mm/hr 0.00 in0.0 mm
01:45 AM 22.6°F-5.2°C 10.1°F-12.2°C 58% Calm Calm 0.7 mph1.1 kmh 30.28 in1025.4 mb 0.00 in0.0 mm 0.00 in/hr0.0 mm/hr 0.00 in0.0 mm
02:00 AM 22.3°F-5.4°C 10.2°F-12.1°C 59% 0.2 mph NE0.3 kmh NE 1.6 mph2.6 kmh 30.26 in1024.7 mb 0.00 in0.0 mm 0.00 in/hr0.0 mm/hr 0.00 in0.0 mm
02:15 AM 22.1°F-5.5°C 10.8°F-11.8°C 61% Calm Calm 0.7 mph1.1 kmh 30.25 in1024.4 mb 0.00 in0.0 mm 0.00 in/hr0.0 mm/hr 0.00 in0.0 mm
02:30 AM 21.9°F-5.6°C 10.9°F-11.7°C 62% Calm Calm 0.7 mph1.1 kmh 30.25 in1024.4 mb 0.00 in0.0 mm 0.00 in/hr0.0 mm/hr 0.00 in0.0 mm
02:45 AM 21.6°F-5.8°C 11.0°F-11.7°C 63% Calm Calm 1.6 mph2.6 kmh 30.25 in1024.4 mb 0.00 in0.0 mm 0.00 in/hr0.0 mm/hr 0.00 in0.0 mm
03:00 AM 20.8°F-6.2°C 10.6°F-11.9°C 64% Calm Calm 0.7 mph1.1 kmh 30.26 in1024.7 mb 0.00 in0.0 mm 0.00 in/hr0.0 mm/hr 0.00 in0.0 mm
03:15 AM 20.3°F-6.5°C 10.1°F-12.2°C 64% Calm Calm 0.7 mph1.1 kmh 30.25 in1024.4 mb 0.00 in0.0 mm 0.00 in/hr0.0 mm/hr 0.00 in0.0 mm
03:30 AM 20.1°F-6.6°C 10.0°F-12.2°C 64% Calm Calm 0.7 mph1.1 kmh 30.25 in1024.4 mb 0.00 in0.0 mm 0.00 in/hr0.0 mm/hr 0.00 in0.0 mm
03:45 AM 19.8°F-6.8°C 10.0°F-12.2°C 65% Calm Calm 0.7 mph1.1 kmh 30.25 in1024.4 mb 0.00 in0.0 mm 0.00 in/hr0.0 mm/hr 0.00 in0.0 mm
04:00 AM 19.8°F-6.8°C 10.0°F-12.2°C 65% 0.1 mph NW0.2 kmh NW 1.6 mph2.6 kmh 30.25 in1024.4 mb 0.00 in0.0 mm 0.00 in/hr0.0 mm/hr 0.00 in0.0 mm
04:15 AM 19.8°F-6.8°C 10.3°F-12.1°C 66% 0.3 mph N0.5 kmh N 1.6 mph2.6 kmh 30.24 in1024.0 mb 0.00 in0.0 mm 0.00 in/hr0.0 mm/hr 0.00 in0.0 mm
04:30 AM 20.3°F-6.5°C 11.1°F-11.6°C 67% 0.4 mph NNE0.6 kmh NNE 2.2 mph3.5 kmh 30.23 in1023.7 mb 0.00 in0.0 mm 0.00 in/hr0.0 mm/hr 0.00 in0.0 mm
04:45 AM 20.8°F-6.2°C 11.7°F-11.3°C 67% 0.3 mph NNE0.5 kmh NNE 3.1 mph5.0 kmh 30.23 in1023.7 mb 0.00 in0.0 mm 0.00 in/hr0.0 mm/hr 0.00 in0.0 mm
05:00 AM 21.2°F-6.0°C 11.3°F-11.5°C 65% 0.4 mph ENE0.6 kmh ENE 3.1 mph5.0 kmh 30.22 in1023.4 mb 0.00 in0.0 mm 0.00 in/hr0.0 mm/hr 0.00 in0.0 mm
05:15 AM 21.6°F-5.8°C 11.3°F-11.5°C 64% Calm Calm 1.6 mph2.6 kmh 30.21 in1023.0 mb 0.00 in0.0 mm 0.00 in/hr0.0 mm/hr 0.00 in0.0 mm
05:30 AM 21.9°F-5.6°C 11.7°F-11.3°C 64% 0.1 mph NW0.2 kmh NW 2.2 mph3.5 kmh 30.21 in1023.0 mb 0.00 in0.0 mm 0.00 in/hr0.0 mm/hr 0.00 in0.0 mm
05:45 AM 22.3°F-5.4°C 11.6°F-11.3°C 63% 0.2 mph NNE0.3 kmh NNE 2.2 mph3.5 kmh 30.21 in1023.0 mb 0.00 in0.0 mm 0.00 in/hr0.0 mm/hr 0.00 in0.0 mm
06:00 AM 22.8°F-5.1°C 11.8°F-11.2°C 62% Calm Calm 0.7 mph1.1 kmh 30.20 in1022.7 mb 0.00 in0.0 mm 0.00 in/hr0.0 mm/hr 0.00 in0.0 mm
06:15 AM 23.9°F-4.5°C 11.3°F-11.5°C 58% 0.6 mph N1.0 kmh N 3.8 mph6.1 kmh 30.19 in1022.4 mb 0.00 in0.0 mm 0.00 in/hr0.0 mm/hr 0.00 in0.0 mm
06:30 AM 24.4°F-4.2°C 11.0°F-11.7°C 56% 0.6 mph E1.0 kmh E 3.1 mph5.0 kmh 30.19 in1022.4 mb 0.00 in0.0 mm 0.00 in/hr0.0 mm/hr 0.00 in0.0 mm
06:45 AM 25.0°F-3.9°C 10.3°F-12.1°C 53% 0.7 mph ESE1.1 kmh ESE 3.8 mph6.1 kmh 30.19 in1022.4 mb 0.00 in0.0 mm 0.00 in/hr0.0 mm/hr 0.00 in0.0 mm
07:00 AM 25.2°F-3.8°C 9.6°F-12.4°C 51% 0.9 mph ESE1.4 kmh ESE 5.4 mph8.7 kmh 30.18 in1022.0 mb 0.00 in0.0 mm 0.00 in/hr0.0 mm/hr 0.00 in0.0 mm
07:15 AM 25.9°F-3.4°C 9.8°F-12.3°C 50% 1.6 mph E2.6 kmh E 6.0 mph9.7 kmh 30.18 in1022.0 mb 0.00 in0.0 mm 0.00 in/hr0.0 mm/hr 0.00 in0.0 mm
07:30 AM 25.7°F-3.5°C 9.2°F-12.7°C 49% 0.6 mph ENE1.0 kmh ENE 4.5 mph7.2 kmh 30.18 in1022.0 mb 0.00 in0.0 mm 0.00 in/hr0.0 mm/hr 0.00 in0.0 mm
07:45 AM 25.9°F-3.4°C 9.4°F-12.6°C 49% 1.5 mph ENE2.4 kmh ENE 6.0 mph9.7 kmh 30.18 in1022.0 mb 0.00 in0.0 mm 0.00 in/hr0.0 mm/hr 0.00 in0.0 mm
08:00 AM 25.5°F-3.6°C 9.1°F-12.7°C 49% 1.0 mph ENE1.6 kmh ENE 3.8 mph6.1 kmh 30.19 in1022.4 mb 0.00 in0.0 mm 0.00 in/hr0.0 mm/hr 0.00 in0.0 mm
08:15 AM 25.0°F-3.9°C 9.0°F-12.8°C 50% 0.3 mph NE0.5 kmh NE 2.2 mph3.5 kmh 30.19 in1022.4 mb 0.00 in0.0 mm 0.00 in/hr0.0 mm/hr 0.00 in0.0 mm
08:30 AM 25.3°F-3.7°C 8.9°F-12.8°C 49% 0.2 mph ENE0.3 kmh ENE 1.6 mph2.6 kmh 30.19 in1022.4 mb 0.00 in0.0 mm 0.00 in/hr0.0 mm/hr 0.00 in0.0 mm
08:45 AM 26.1°F-3.3°C 9.6°F-12.4°C 49% 1.2 mph E1.9 kmh E 3.8 mph6.1 kmh 30.19 in1022.4 mb 0.00 in0.0 mm 0.00 in/hr0.0 mm/hr 0.00 in0.0 mm
09:00 AM 27.1°F-2.7°C 10.1°F-12.2°C 48% 2.3 mph E3.7 kmh E 6.9 mph11.1 kmh 30.20 in1022.7 mb 0.00 in0.0 mm 0.00 in/hr0.0 mm/hr 0.00 in0.0 mm
09:15 AM 29.3°F-1.5°C 12.5°F-10.8°C 49% 2.6 mph SE4.2 kmh SE 6.9 mph11.1 kmh 30.19 in1022.4 mb 0.00 in0.0 mm 0.00 in/hr0.0 mm/hr 0.00 in0.0 mm
09:30 AM 30.2°F-1.0°C 12.0°F-11.1°C 46% 2.1 mph E3.4 kmh E 6.0 mph9.7 kmh 30.17 in1021.7 mb 0.00 in0.0 mm 0.00 in/hr0.0 mm/hr 0.00 in0.0 mm
09:45 AM 31.3°F-0.4°C 14.8°F-9.6°C 50% 3.0 mph SE4.8 kmh SE 9.2 mph14.8 kmh 30.17 in1021.7 mb 0.00 in0.0 mm 0.00 in/hr0.0 mm/hr 0.00 in0.0 mm
10:00 AM 32.9°F0.5°C 16.3°F-8.7°C 50% 2.7 mph SE4.3 kmh SE 9.2 mph14.8 kmh 30.16 in1021.3 mb 0.00 in0.0 mm 0.00 in/hr0.0 mm/hr 0.00 in0.0 mm
10:15 AM 34.9°F1.6°C 18.2°F-7.7°C 50% 2.8 mph E4.5 kmh E 9.2 mph14.8 kmh 30.16 in1021.3 mb 0.00 in0.0 mm 0.00 in/hr0.0 mm/hr 0.00 in0.0 mm
10:30 AM 35.4°F1.9°C 17.2°F-8.2°C 47% 5.0 mph SSE8.0 kmh SSE 13.0 mph20.9 kmh 30.17 in1021.7 mb 0.00 in0.0 mm 0.00 in/hr0.0 mm/hr 0.00 in0.0 mm
10:45 AM 36.3°F2.4°C 17.5°F-8.1°C 46% 4.2 mph SE6.8 kmh SE 13.0 mph20.9 kmh 30.15 in1021.0 mb 0.00 in0.0 mm 0.00 in/hr0.0 mm/hr 0.00 in0.0 mm
11:00 AM 37.2°F2.9°C 17.9°F-7.8°C 45% 4.5 mph SE7.2 kmh SE 9.2 mph14.8 kmh 30.14 in1020.7 mb 0.00 in0.0 mm 0.00 in/hr0.0 mm/hr 0.00 in0.0 mm
11:15 AM 37.6°F3.1°C 19.2°F-7.1°C 47% 3.4 mph SE5.5 kmh SE 11.4 mph18.3 kmh 30.14 in1020.7 mb 0.00 in0.0 mm 0.00 in/hr0.0 mm/hr 0.00 in0.0 mm
11:30 AM 38.7°F3.7°C 20.2°F-6.6°C 47% 3.6 mph S5.8 kmh S 10.7 mph17.2 kmh 30.11 in1019.6 mb 0.00 in0.0 mm 0.00 in/hr0.0 mm/hr 0.00 in0.0 mm
11:45 AM 38.5°F3.6°C 20.0°F-6.7°C 47% 2.9 mph S4.7 kmh S 9.2 mph14.8 kmh 30.12 in1020.0 mb 0.00 in0.0 mm 0.00 in/hr0.0 mm/hr 0.00 in0.0 mm
12:00 PM 38.3°F3.5°C 19.4°F-7.0°C 46% 4.1 mph S6.6 kmh S 10.7 mph17.2 kmh 30.12 in1020.0 mb 0.00 in0.0 mm 0.00 in/hr0.0 mm/hr 0.00 in0.0 mm
12:15 PM 39.2°F4.0°C 19.1°F-7.2°C 44% 3.9 mph SSE6.3 kmh SSE 12.1 mph19.5 kmh 30.10 in1019.3 mb 0.00 in0.0 mm 0.00 in/hr0.0 mm/hr 0.00 in0.0 mm
12:30 PM 39.9°F4.4°C 19.8°F-6.8°C 44% 2.8 mph SSW4.5 kmh SSW 10.7 mph17.2 kmh 30.08 in1018.6 mb 0.00 in0.0 mm 0.00 in/hr0.0 mm/hr 0.00 in0.0 mm
12:45 PM 39.9°F4.4°C 19.3°F-7.1°C 43% 3.3 mph SSW5.3 kmh SSW 7.6 mph12.2 kmh 30.07 in1018.3 mb 0.00 in0.0 mm 0.00 in/hr0.0 mm/hr 0.00 in0.0 mm
01:00 PM 38.5°F3.6°C 19.0°F-7.2°C 45% 5.2 mph S8.4 kmh S 14.5 mph23.3 kmh 30.08 in1018.6 mb 0.00 in0.0 mm 0.00 in/hr0.0 mm/hr 0.00 in0.0 mm
01:15 PM 37.9°F3.3°C 19.5°F-6.9°C 47% 5.8 mph SE9.3 kmh SE 15.2 mph24.5 kmh 30.04 in1017.3 mb 0.00 in0.0 mm 0.00 in/hr0.0 mm/hr 0.00 in0.0 mm
01:30 PM 39.4°F4.1°C 21.3°F-5.9°C 48% 6.3 mph SE10.1 kmh SE 20.6 mph33.2 kmh 30.01 in1016.3 mb 0.00 in0.0 mm 0.00 in/hr0.0 mm/hr 0.00 in0.0 mm
01:45 PM 39.4°F4.1°C 20.8°F-6.2°C 47% 5.2 mph SE8.4 kmh SE 13.6 mph21.9 kmh 30.00 in1015.9 mb 0.00 in0.0 mm 0.00 in/hr0.0 mm/hr 0.00 in0.0 mm
02:00 PM 41.2°F5.1°C 20.4°F-6.4°C 43% 5.7 mph SSE9.2 kmh SSE 15.2 mph24.5 kmh 29.98 in1015.2 mb 0.00 in0.0 mm 0.00 in/hr0.0 mm/hr 0.00 in0.0 mm
02:15 PM 41.0°F5.0°C 19.1°F-7.2°C 41% 4.9 mph SE7.9 kmh SE 13.0 mph20.9 kmh 29.97 in1014.9 mb 0.00 in0.0 mm 0.00 in/hr0.0 mm/hr 0.00 in0.0 mm
02:30 PM 40.8°F4.9°C 20.1°F-6.6°C 43% 6.4 mph SE10.3 kmh SE 14.5 mph23.3 kmh 29.95 in1014.2 mb 0.00 in0.0 mm 0.00 in/hr0.0 mm/hr 0.00 in0.0 mm
02:45 PM 41.0°F5.0°C 19.7°F-6.8°C 42% 6.1 mph ESE9.8 kmh ESE 17.4 mph28.0 kmh 29.93 in1013.5 mb 0.00 in0.0 mm 0.00 in/hr0.0 mm/hr 0.00 in0.0 mm
03:00 PM 41.7°F5.4°C 20.3°F-6.5°C 42% 4.5 mph SE7.2 kmh SE 10.7 mph17.2 kmh 29.92 in1013.2 mb 0.00 in0.0 mm 0.00 in/hr0.0 mm/hr 0.00 in0.0 mm
03:15 PM 41.9°F5.5°C 20.5°F-6.4°C 42% 2.6 mph SE4.2 kmh SE 13.0 mph20.9 kmh 29.91 in1012.9 mb 0.00 in0.0 mm 0.00 in/hr0.0 mm/hr 0.00 in0.0 mm
03:30 PM 42.3°F5.7°C 20.3°F-6.5°C 41% 4.1 mph S6.6 kmh S 9.2 mph14.8 kmh 29.88 in1011.9 mb 0.00 in0.0 mm 0.00 in/hr0.0 mm/hr 0.00 in0.0 mm
03:45 PM 42.1°F5.6°C 19.5°F-6.9°C 40% 3.7 mph NE6.0 kmh NE 13.6 mph21.9 kmh 29.90 in1012.5 mb 0.00 in0.0 mm 0.00 in/hr0.0 mm/hr 0.00 in0.0 mm
04:00 PM 41.9°F5.5°C 18.8°F-7.3°C 39% 4.1 mph S6.6 kmh S 15.9 mph25.6 kmh 29.91 in1012.9 mb 0.00 in0.0 mm 0.00 in/hr0.0 mm/hr 0.00 in0.0 mm
04:15 PM 41.9°F5.5°C 19.4°F-7.0°C 40% 2.7 mph S4.3 kmh S 8.3 mph13.4 kmh 29.90 in1012.5 mb 0.00 in0.0 mm 0.00 in/hr0.0 mm/hr 0.00 in0.0 mm
04:30 PM 42.1°F5.6°C 19.5°F-6.9°C 40% 1.7 mph W2.7 kmh W 5.4 mph8.7 kmh 29.89 in1012.2 mb 0.00 in0.0 mm 0.00 in/hr0.0 mm/hr 0.00 in0.0 mm
04:45 PM 42.4°F5.8°C 19.8°F-6.8°C 40% 5.3 mph SE8.5 kmh SE 16.8 mph27.0 kmh 29.87 in1011.5 mb 0.00 in0.0 mm 0.00 in/hr0.0 mm/hr 0.00 in0.0 mm
05:00 PM 42.8°F6.0°C 18.4°F-7.6°C 37% 6.1 mph S9.8 kmh S 14.5 mph23.3 kmh 29.88 in1011.9 mb 0.00 in0.0 mm 0.00 in/hr0.0 mm/hr 0.00 in0.0 mm
05:15 PM 42.3°F5.7°C 20.3°F-6.5°C 41% 3.9 mph NW6.3 kmh NW 10.7 mph17.2 kmh 29.87 in1011.5 mb 0.00 in0.0 mm 0.00 in/hr0.0 mm/hr 0.00 in0.0 mm
05:30 PM 41.9°F5.5°C 20.5°F-6.4°C 42% 4.8 mph S7.7 kmh S 14.5 mph23.3 kmh 29.87 in1011.5 mb 0.00 in0.0 mm 0.00 in/hr0.0 mm/hr 0.00 in0.0 mm
05:45 PM 41.7°F5.4°C 20.9°F-6.2°C 43% 3.4 mph SE5.5 kmh SE 12.1 mph19.5 kmh 29.86 in1011.2 mb 0.00 in0.0 mm 0.00 in/hr0.0 mm/hr 0.00 in0.0 mm
06:00 PM 41.4°F5.2°C 21.1°F-6.1°C 44% 2.4 mph S3.9 kmh S 8.3 mph13.4 kmh 29.86 in1011.2 mb 0.00 in0.0 mm 0.00 in/hr0.0 mm/hr 0.00 in0.0 mm
06:15 PM 41.2°F5.1°C 21.5°F-5.8°C 45% 2.8 mph N4.5 kmh N 9.2 mph14.8 kmh 29.86 in1011.2 mb 0.00 in0.0 mm 0.00 in/hr0.0 mm/hr 0.00 in0.0 mm
06:30 PM 40.5°F4.7°C 21.8°F-5.7°C 47% 2.0 mph SSW3.2 kmh SSW 8.3 mph13.4 kmh 29.86 in1011.2 mb 0.00 in0.0 mm 0.00 in/hr0.0 mm/hr 0.00 in0.0 mm
06:45 PM 39.9°F4.4°C 22.3°F-5.4°C 49% 3.3 mph SSW5.3 kmh SSW 9.2 mph14.8 kmh 29.86 in1011.2 mb 0.00 in0.0 mm 0.00 in/hr0.0 mm/hr 0.00 in0.0 mm
07:00 PM 39.2°F4.0°C 22.1°F-5.5°C 50% 2.3 mph S3.7 kmh S 6.9 mph11.1 kmh 29.85 in1010.8 mb 0.00 in0.0 mm 0.00 in/hr0.0 mm/hr 0.00 in0.0 mm
07:15 PM 38.8°F3.8°C 22.7°F-5.2°C 52% 3.9 mph SE6.3 kmh SE 9.2 mph14.8 kmh 29.85 in1010.8 mb 0.00 in0.0 mm 0.00 in/hr0.0 mm/hr 0.00 in0.0 mm
07:30 PM 38.3°F3.5°C 22.7°F-5.2°C 53% 1.6 mph S2.6 kmh S 6.0 mph9.7 kmh 29.86 in1011.2 mb 0.00 in0.0 mm 0.00 in/hr0.0 mm/hr 0.00 in0.0 mm
07:45 PM 37.9°F3.3°C 22.4°F-5.3°C 53% 0.8 mph S1.3 kmh S 3.8 mph6.1 kmh 29.85 in1010.8 mb 0.00 in0.0 mm 0.00 in/hr0.0 mm/hr 0.00 in0.0 mm
08:00 PM 37.0°F2.8°C 20.6°F-6.3°C 51% 1.1 mph SE1.8 kmh SE 4.5 mph7.2 kmh 29.85 in1010.8 mb 0.00 in0.0 mm 0.00 in/hr0.0 mm/hr 0.00 in0.0 mm
08:15 PM 36.3°F2.4°C 19.9°F-6.7°C 51% 0.5 mph SSE0.8 kmh SSE 2.2 mph3.5 kmh 29.85 in1010.8 mb 0.00 in0.0 mm 0.00 in/hr0.0 mm/hr 0.00 in0.0 mm
08:30 PM 35.2°F1.8°C 20.3°F-6.5°C 54% 0.4 mph NE0.6 kmh NE 1.6 mph2.6 kmh 29.84 in1010.5 mb 0.00 in0.0 mm 0.00 in/hr0.0 mm/hr 0.00 in0.0 mm
08:45 PM 35.4°F1.9°C 21.7°F-5.7°C 57% 1.2 mph SE1.9 kmh SE 4.5 mph7.2 kmh 29.84 in1010.5 mb 0.00 in0.0 mm 0.00 in/hr0.0 mm/hr 0.00 in0.0 mm
09:00 PM 34.7°F1.5°C 21.5°F-5.8°C 58% 0.3 mph NE0.5 kmh NE 3.1 mph5.0 kmh 29.84 in1010.5 mb 0.00 in0.0 mm 0.00 in/hr0.0 mm/hr 0.00 in0.0 mm
09:15 PM 34.5°F1.4°C 22.1°F-5.5°C 60% 0.8 mph ENE1.3 kmh ENE 3.8 mph6.1 kmh 29.83 in1010.2 mb 0.00 in0.0 mm 0.00 in/hr0.0 mm/hr 0.00 in0.0 mm
09:30 PM 35.8°F2.1°C 22.9°F-5.1°C 59% 0.2 mph NE0.3 kmh NE 2.2 mph3.5 kmh 29.83 in1010.2 mb 0.00 in0.0 mm 0.00 in/hr0.0 mm/hr 0.00 in0.0 mm
09:45 PM 36.1°F2.3°C 23.2°F-4.9°C 59% 0.4 mph NE0.6 kmh NE 2.2 mph3.5 kmh 29.82 in1009.8 mb 0.00 in0.0 mm 0.00 in/hr0.0 mm/hr 0.00 in0.0 mm
10:00 PM 36.7°F2.6°C 23.7°F-4.6°C 59% 0.5 mph NNE0.8 kmh NNE 3.1 mph5.0 kmh 29.83 in1010.2 mb 0.00 in0.0 mm 0.00 in/hr0.0 mm/hr 0.00 in0.0 mm
10:15 PM 37.2°F2.9°C 24.6°F-4.1°C 60% 0.9 mph S1.4 kmh S 5.4 mph8.7 kmh 29.82 in1009.8 mb 0.00 in0.0 mm 0.00 in/hr0.0 mm/hr 0.00 in0.0 mm
10:30 PM 37.6°F3.1°C 26.1°F-3.3°C 63% 1.0 mph E1.6 kmh E 4.5 mph7.2 kmh 29.81 in1009.5 mb 0.00 in0.0 mm 0.00 in/hr0.0 mm/hr 0.00 in0.0 mm
10:45 PM 38.3°F3.5°C 26.8°F-2.9°C 63% 0.6 mph N1.0 kmh N 3.1 mph5.0 kmh 29.80 in1009.1 mb 0.00 in0.0 mm 0.00 in/hr0.0 mm/hr 0.00 in0.0 mm
11:00 PM 38.7°F3.7°C 27.2°F-2.7°C 63% 1.3 mph N2.1 kmh N 3.8 mph6.1 kmh 29.80 in1009.1 mb 0.00 in0.0 mm 0.00 in/hr0.0 mm/hr 0.00 in0.0 mm
11:15 PM 39.0°F3.9°C 27.1°F-2.7°C 62% 0.8 mph NE1.3 kmh NE 2.2 mph3.5 kmh 29.79 in1008.8 mb 0.00 in0.0 mm 0.00 in/hr0.0 mm/hr 0.00 in0.0 mm
11:30 PM 39.4°F4.1°C 27.1°F-2.7°C 61% 1.3 mph N2.1 kmh N 4.5 mph7.2 kmh 29.79 in1008.8 mb 0.00 in0.0 mm 0.00 in/hr0.0 mm/hr 0.00 in0.0 mm
11:45 PM 39.9°F4.4°C 27.6°F-2.4°C 61% 1.4 mph NNW2.3 kmh NNW 4.5 mph7.2 kmh 29.79 in1008.8 mb 0.00 in0.0 mm 0.00 in/hr0.0 mm/hr 0.00 in0.0 mm